Date,TemperatureHighF,TemperatureAvgF,TemperatureLowF,DewpointHighF,DewpointAvgF,DewpointLowF,HumidityHigh,HumidityAvg,HumidityLow,PressureMaxIn,PressureMinIn,WindSpeedMaxMPH,WindSpeedAvgMPH,GustSpeedMaxMPH,PrecipitationSumIn
2013-6-1,90,77,62,69,64,59,98,70,37,29.99,29.87,4,1,12,0.00
2013-6-2,88,76,66,71,65,-100,97,74,37,29.89,29.72,7,1,21,0.00
2013-6-3,77,66,54,67,61,44,99,85,60,29.84,29.77,2,0,16,0.00
2013-6-4,68,57,42,50,44,39,92,66,39,30.09,29.84,4,0,17,0.00
2013-6-5,74,59,42,55,47,41,99,70,34,30.19,30.08,1,0,11,0.00
2013-6-6,70,60,48,53,49,47,97,70,46,30.18,30.09,3,0,10,0.00
2013-6-7,54,52,49,54,51,49,99,98,95,30.11,29.83,3,0,12,0.00
2013-6-8,74,60,50,64,56,50,99,88,64,30.00,29.65,4,1,16,0.00
2013-6-9,77,64,51,61,56,50,99,78,48,30.17,30.00,3,0,12,0.00
2013-6-10,68,60,51,61,56,50,99,90,66,30.20,30.00,3,0,11,0.00
2013-6-11,60,56,53,58,55,53,99,97,87,30.00,29.58,5,0,13,0.00
2013-6-12,66,59,52,56,54,51,99,84,62,29.83,29.56,6,1,17,0.00
2013-6-13,63,54,47,58,52,46,100,95,80,29.82,29.69,2,0,7,0.00
2013-6-14,72,58,49,58,52,48,99,86,47,29.79,29.65,3,0,11,0.00
2013-6-15,76,63,48,53,49,41,98,66,29,29.94,29.79,4,0,11,0.00
2013-6-16,74,63,49,61,54,46,95,72,49,29.95,29.71,4,0,13,0.00
2013-6-17,81,66,55,67,60,54,99,84,49,29.91,29.78,3,0,12,0.00
2013-6-18,70,60,54,64,58,53,100,94,77,29.94,29.89,1,0,6,0.00
2013-6-19,74,61,48,57,50,42,99,73,35,30.15,29.91,3,0,8,0.00
2013-6-20,77,59,43,55,47,42,100,72,34,30.26,30.14,2,0,13,0.00
2013-6-22,82,77,67,65,62,59,81,61,47,30.21,30.11,5,1,17,0.00
2013-6-23,88,75,62,73,65,58,88,72,53,30.16,30.00,4,1,19,0.00
2013-6-24,90,76,67,75,69,66,98,81,53,30.03,29.91,3,0,11,0.00
2013-6-25,87,75,64,73,68,63,99,81,55,29.95,29.75,3,0,11,0.00
2013-6-26,80,71,65,73,68,65,99,92,71,29.85,29.74,2,0,7,0.00
2013-6-27,69,66,63,67,65,63,99,98,92,29.86,29.76,2,0,6,0.00
2013-6-28,77,65,57,73,64,57,100,96,80,29.75,29.48,4,0,12,0.00
2013-6-29,82,72,65,71,67,65,99,86,60,29.71,29.51,4,0,13,0.00
2013-6-30,84,75,66,72,68,65,98,82,58,29.93,29.72,4,0,11,0.00